Time;durP1;ratioP1;P1;durP2;ratioP2;P2;SDS_P1;SDS_P2;PMS_P1;PMS_P2;Temp;Humidity;BMP_temperature;BMP_pressure;BME280_temperature;BME280_humidity;BME280_pressure;Samples;Min_cycle;Max_cycle;Signal;HPM_P1;HPM_P2
2023/06/20 00:01:12;;;;;;;3.17;1.92;;;;;;;19.26;59.44;101020.00;10279424;29;20039;-72
2023/06/20 00:06:14;;;;;;;3.20;2.00;;;;;;;19.36;59.81;101025.25;10264346;28;20062;-72
2023/06/20 00:11:16;;;;;;;4.35;1.80;;;;;;;19.33;59.94;101025.91;10278240;29;20039;-73
2023/06/20 00:16:20;;;;;;;3.15;2.30;;;;;;;19.21;60.09;101025.75;10276178;29;20054;-72
2023/06/20 00:21:26;;;;;;;4.35;2.40;;;;;;;19.30;60.90;101036.88;10281172;29;20410;-72
2023/06/20 00:26:28;;;;;;;4.53;2.08;;;;;;;18.98;62.66;101039.88;10265622;29;20050;-73
2023/06/20 00:31:31;;;;;;;4.20;2.40;;;;;;;18.80;64.21;101038.22;10280566;29;20055;-73
2023/06/20 00:36:33;;;;;;;3.38;2.30;;;;;;;18.81;64.15;101050.97;10281957;28;20047;-73
2023/06/20 00:41:35;;;;;;;3.70;2.30;;;;;;;18.76;64.83;101051.16;10280440;29;20047;-73
2023/06/20 00:46:40;;;;;;;2.85;2.33;;;;;;;18.65;66.31;101049.81;10274072;29;20059;-73
2023/06/20 00:51:43;;;;;;;3.42;2.15;;;;;;;18.49;66.48;101048.63;10279497;29;20039;-72
2023/06/20 00:56:45;;;;;;;2.95;2.20;;;;;;;18.31;67.54;101045.81;10278380;29;20047;-73
2023/06/20 01:01:47;;;;;;;2.42;2.15;;;;;;;18.08;68.72;101035.97;10271271;29;20058;-73
2023/06/20 01:07:02;;;;;;;4.35;2.50;;;;;;;18.36;68.02;101042.88;10264248;29;20047;-72
2023/06/20 01:12:17;;;;;;;4.68;3.08;;;;;;;18.42;68.39;101039.97;10278450;29;20043;-72
2023/06/20 01:17:39;;;;;;;5.30;3.17;;;;;;;18.14;69.22;101036.63;10256044;29;20043;-72
2023/06/20 01:23:03;;;;;;;3.42;2.65;;;;;;;18.29;69.12;101042.53;10262270;28;20051;-72
2023/06/20 01:28:15;;;;;;;4.13;2.70;;;;;;;18.37;68.64;101050.06;10270092;29;20506;-72
2023/06/20 01:33:25;;;;;;;3.60;2.67;;;;;;;18.10;67.37;101060.63;10286567;29;20043;-73
2023/06/20 01:38:28;;;;;;;6.93;3.05;;;;;;;17.77;65.83;101055.44;10269120;29;20054;-73
2023/06/20 01:43:32;;;;;;;6.43;3.00;;;;;;;17.57;62.60;101047.63;10276187;29;20043;-72
2023/06/20 01:48:36;;;;;;;8.35;3.10;;;;;;;17.51;60.32;101037.78;10300098;28;20051;-72
2023/06/20 01:53:39;;;;;;;2.75;2.13;;;;;;;17.73;59.21;101041.38;10284749;29;20148;-73
2023/06/20 01:58:42;;;;;;;3.80;2.60;;;;;;;18.04;57.43;101041.31;10266914;29;20051;-72
2023/06/20 02:03:44;;;;;;;6.80;2.60;;;;;;;18.14;55.70;101040.22;10281651;29;20039;-72
2023/06/20 02:08:47;;;;;;;4.20;2.35;;;;;;;18.15;55.37;101044.63;10272648;29;20046;-73
2023/06/20 02:13:50;;;;;;;3.40;2.38;;;;;;;18.52;53.25;101045.19;10282412;29;20043;-72
2023/06/20 02:18:52;;;;;;;2.50;2.17;;;;;;;18.51;52.09;101043.56;10282441;29;20054;-71
2023/06/20 02:23:55;;;;;;;6.47;2.95;;;;;;;18.74;50.58;101035.91;10282994;29;20505;-73
2023/06/20 02:28:59;;;;;;;5.68;2.70;;;;;;;19.05;49.12;101053.25;10281337;29;20306;-71
2023/06/20 02:34:04;;;;;;;4.53;2.55;;;;;;;19.46;48.25;101046.34;10279831;28;20049;-72
2023/06/20 02:39:06;;;;;;;4.43;2.50;;;;;;;19.87;47.09;101063.28;10280514;29;20044;-72
2023/06/20 02:44:09;;;;;;;6.13;2.72;;;;;;;19.94;45.90;101054.38;10281933;29;20056;-72
2023/06/20 02:49:29;;;;;;;3.45;2.30;;;;;;;20.31;43.81;101065.88;10255261;29;20054;-72
2023/06/20 02:55:06;;;;;;;2.42;1.90;;;;;;;20.35;42.23;101062.06;10279022;29;20062;-72
2023/06/20 03:00:10;;;;;;;3.38;2.08;;;;;;;20.22;42.61;101067.88;10292748;28;20058;-72
2023/06/20 03:05:15;;;;;;;2.67;2.00;;;;;;;20.45;41.93;101061.69;10264490;29;20043;-72
2023/06/20 03:10:18;;;;;;;3.72;1.90;;;;;;;21.15;40.66;101063.94;10265773;29;20498;-72
2023/06/20 03:15:20;;;;;;;2.80;2.00;;;;;;;21.62;39.72;101070.91;10281768;29;20042;-72
2023/06/20 03:20:22;;;;;;;3.42;2.00;;;;;;;21.31;39.91;101065.78;10281031;29;20062;-72
2023/06/20 03:25:24;;;;;;;4.05;2.03;;;;;;;20.96;40.82;101079.22;10271037;29;20043;-71
2023/06/20 03:30:27;;;;;;;3.42;2.50;;;;;;;21.22;40.51;101069.81;10282507;28;20051;-72
2023/06/20 03:35:30;;;;;;;4.25;2.03;;;;;;;21.67;39.97;101075.44;10275754;29;20051;-71
2023/06/20 03:40:33;;;;;;;4.97;2.30;;;;;;;21.81;39.50;101070.34;10279649;28;20458;-71
2023/06/20 03:45:35;;;;;;;2.83;2.05;;;;;;;22.09;39.86;101075.31;10279780;28;20055;-73
2023/06/20 03:50:39;;;;;;;3.42;2.10;;;;;;;21.89;39.89;101066.66;10292921;28;20043;-73
2023/06/20 03:55:45;;;;;;;2.55;2.00;;;;;;;21.88;40.31;101056.66;10279542;29;20055;-73
2023/06/20 04:00:48;;;;;;;3.40;2.30;;;;;;;22.15;39.71;101065.53;10270939;29;20048;-73
2023/06/20 04:05:51;;;;;;;2.50;1.95;;;;;;;22.31;40.37;101077.66;10278082;29;20043;-73
2023/06/20 04:10:53;;;;;;;4.10;2.25;;;;;;;21.57;40.77;101078.69;10258584;29;20054;-72
2023/06/20 04:15:56;;;;;;;5.25;3.10;;;;;;;20.99;42.96;101083.28;10280228;29;20055;-72
2023/06/20 04:20:58;;;;;;;4.45;2.25;;;;;;;20.36;44.69;101087.97;10262589;29;20425;-72
2023/06/20 04:26:02;;;;;;;2.45;2.17;;;;;;;20.44;45.82;101087.13;10271313;29;20047;-72
2023/06/20 04:31:04;;;;;;;2.13;1.60;;;;;;;21.19;45.06;101088.06;10276413;29;20043;-72
2023/06/20 04:36:06;;;;;;;2.55;2.20;;;;;;;21.47;44.24;101081.91;10278904;29;20051;-72
2023/06/20 04:41:11;;;;;;;1.90;1.42;;;;;;;21.48;44.34;101086.31;10276702;28;20495;-71
2023/06/20 04:46:15;;;;;;;2.75;1.60;;;;;;;22.11;42.94;101095.34;10277555;28;20062;-71
2023/06/20 04:51:17;;;;;;;2.28;1.38;;;;;;;22.48;43.02;101105.38;10274827;28;20055;-71
2023/06/20 04:56:20;;;;;;;1.80;1.42;;;;;;;22.30;42.77;101095.59;10268918;28;20050;-73
2023/06/20 05:01:23;;;;;;;2.13;1.45;;;;;;;22.59;43.44;101102.13;10266298;29;20059;-72
2023/06/20 05:06:26;;;;;;;2.53;1.38;;;;;;;23.83;41.67;101099.38;10289024;29;20055;-72
2023/06/20 05:11:28;;;;;;;3.35;1.77;;;;;;;25.04;39.65;101105.19;10283172;28;20051;-72
2023/06/20 05:16:31;;;;;;;2.63;1.42;;;;;;;25.46;38.25;101116.47;10262834;29;20048;-72
2023/06/20 05:21:33;;;;;;;2.97;1.65;;;;;;;25.79;38.66;101104.69;10258009;29;20383;-72
2023/06/20 05:26:35;;;;;;;2.70;2.10;;;;;;;26.11;36.82;101094.84;10287969;29;20054;-72
2023/06/20 05:31:41;;;;;;;5.18;1.75;;;;;;;26.59;37.46;101098.06;10285361;29;20043;-72
2023/06/20 05:36:43;;;;;;;2.72;2.10;;;;;;;26.88;35.76;101101.28;10288004;29;20042;-73
2023/06/20 05:41:47;;;;;;;2.75;1.90;;;;;;;26.87;35.44;101108.09;10285461;29;20054;-73
2023/06/20 05:46:49;;;;;;;3.10;2.00;;;;;;;26.96;34.83;101111.47;10287052;29;20526;-73
2023/06/20 05:51:53;;;;;;;3.38;1.90;;;;;;;26.94;34.61;101120.28;10286232;29;20042;-73
2023/06/20 05:56:56;;;;;;;3.13;1.92;;;;;;;27.04;33.42;101116.00;10285723;29;20046;-73
2023/06/20 06:01:58;;;;;;;2.00;1.77;;;;;;;27.64;32.57;101121.63;10285940;29;20079;-73
2023/06/20 06:07:00;;;;;;;2.20;1.60;;;;;;;26.49;33.95;101126.03;10282179;28;20059;-74
2023/06/20 06:12:03;;;;;;;3.10;1.77;;;;;;;26.68;34.63;101118.28;10283942;28;20063;-71
2023/06/20 06:17:05;;;;;;;2.80;1.92;;;;;;;27.29;33.07;101125.63;10283685;28;20058;-73
2023/06/20 06:22:07;;;;;;;3.05;1.52;;;;;;;27.80;32.94;101118.56;10285896;29;20502;-73
2023/06/20 06:27:10;;;;;;;3.00;2.03;;;;;;;27.98;33.42;101121.56;10285793;29;20055;-73
2023/06/20 06:32:13;;;;;;;3.58;2.13;;;;;;;28.29;32.96;101120.25;10280622;28;20047;-72
2023/06/20 06:37:15;;;;;;;3.40;1.95;;;;;;;28.14;33.73;101137.06;10266536;29;20379;-72
2023/06/20 06:42:18;;;;;;;2.53;2.00;;;;;;;28.05;33.87;101127.28;10267769;29;20035;-72
2023/06/20 06:47:20;;;;;;;3.28;1.70;;;;;;;27.71;34.46;101130.16;10283791;29;20510;-72
2023/06/20 06:52:23;;;;;;;2.85;1.60;;;;;;;27.42;34.78;101133.81;10282638;29;20035;-72
2023/06/20 06:57:25;;;;;;;2.53;1.90;;;;;;;27.21;34.71;101135.16;10283658;29;20047;-72
2023/06/20 07:02:28;;;;;;;2.75;1.98;;;;;;;27.46;34.75;101118.56;10283931;28;20051;-72
2023/06/20 07:07:30;;;;;;;2.28;1.63;;;;;;;27.73;34.54;101130.56;10283797;29;20518;-72
2023/06/20 07:12:32;;;;;;;2.53;2.17;;;;;;;28.11;33.29;101137.00;10283819;29;20043;-72
2023/06/20 07:17:35;;;;;;;3.90;2.00;;;;;;;28.22;32.63;101126.63;10284289;28;20055;-72
2023/06/20 07:22:37;;;;;;;2.78;1.75;;;;;;;27.84;33.30;101125.88;10282810;28;20427;-72
2023/06/20 07:27:40;;;;;;;4.38;1.90;;;;;;;28.41;33.11;101128.44;10283860;29;20518;-72
2023/06/20 07:32:42;;;;;;;2.75;1.80;;;;;;;28.70;32.52;101123.81;10292585;28;20039;-73
2023/06/20 07:37:50;;;;;;;4.95;2.28;;;;;;;29.02;32.27;101130.50;10282100;29;20039;-73
2023/06/20 07:42:52;;;;;;;3.80;1.80;;;;;;;28.91;33.09;101146.56;10282078;28;20047;-73
2023/06/20 07:47:54;;;;;;;3.22;2.00;;;;;;;30.02;31.67;101130.84;10275271;29;20054;-73
2023/06/20 07:52:56;;;;;;;2.05;1.80;;;;;;;29.09;32.39;101136.19;10279898;29;20075;-73
2023/06/20 07:57:58;;;;;;;2.15;1.60;;;;;;;30.26;31.70;101138.59;10282866;29;20043;-73
2023/06/20 08:03:01;;;;;;;2.80;1.50;;;;;;;29.68;31.61;101130.41;10276011;28;20421;-79
2023/06/20 08:08:03;;;;;;;4.15;1.50;;;;;;;29.55;32.11;101140.44;10272365;29;20047;-73
2023/06/20 08:13:05;;;;;;;4.45;1.90;;;;;;;28.15;33.78;101143.50;10273305;28;20043;-74
2023/06/20 08:18:07;;;;;;;2.47;1.75;;;;;;;27.58;33.64;101151.31;10277247;28;20043;-73
2023/06/20 08:23:10;;;;;;;1.92;1.42;;;;;;;28.41;32.33;101143.34;10275660;28;20506;-72
2023/06/20 08:28:12;;;;;;;3.22;1.42;;;;;;;28.36;30.77;101149.38;10263244;29;20051;-72
2023/06/20 08:33:14;;;;;;;1.95;1.13;;;;;;;28.22;31.84;101157.66;10280348;28;20047;-72
2023/06/20 08:38:17;;;;;;;2.30;1.17;;;;;;;28.28;30.59;101158.97;10302677;28;20043;-73
2023/06/20 08:43:19;;;;;;;3.92;1.58;;;;;;;28.49;30.39;101169.66;10285720;28;20035;-73
2023/06/20 08:48:23;;;;;;;2.13;1.50;;;;;;;28.96;29.56;101179.28;10286042;28;20047;-76
2023/06/20 08:53:25;;;;;;;2.85;1.40;;;;;;;27.71;30.84;101171.63;10274204;28;20514;-74
2023/06/20 08:58:31;;;;;;;3.60;1.40;;;;;;;28.30;29.33;101173.50;10301491;28;20058;-77
2023/06/20 09:03:35;;;;;;;1.27;1.17;;;;;;;28.06;30.05;101174.84;10285921;28;20055;-75
2023/06/20 09:08:39;;;;;;;3.60;1.45;;;;;;;28.26;29.36;101169.00;10286342;28;20054;-76
2023/06/20 09:13:41;;;;;;;3.65;1.90;;;;;;;28.24;29.42;101180.66;10288297;29;20047;-75
2023/06/20 09:18:49;;;;;;;1.83;1.40;;;;;;;27.94;29.89;101177.94;10288337;29;20094;-75
2023/06/20 09:24:03;;;;;;;2.75;1.15;;;;;;;27.54;29.92;101176.66;10287251;29;20421;-75
2023/06/20 09:29:09;;;;;;;2.50;1.40;;;;;;;26.41;31.01;101164.50;10288309;28;20541;-75
2023/06/20 09:34:12;;;;;;;;;;;;;;;25.17;33.24;101180.50;10287991;29;20039;-74
2023/06/20 09:39:20;;;;;;;2.20;1.38;;;;;;;24.30;35.01;101180.78;10286306;29;20388;-74
2023/06/20 09:44:25;;;;;;;4.18;1.30;;;;;;;23.70;35.82;101169.50;10301571;28;20418;-74
2023/06/20 09:49:30;;;;;;;3.10;1.30;;;;;;;23.47;36.13;101165.63;10287080;29;20529;-75
2023/06/20 09:54:44;;;;;;;1.42;1.27;;;;;;;23.34;36.49;101166.81;10301829;28;20051;-74
2023/06/20 09:59:46;;;;;;;2.00;1.52;;;;;;;23.13;37.04;101181.81;10300591;28;20050;-75
2023/06/20 10:04:49;;;;;;;1.42;1.15;;;;;;;23.12;37.90;101173.78;10285028;29;20067;-74
2023/06/20 10:09:54;;;;;;;1.52;1.42;;;;;;;23.15;37.14;101170.25;10284941;29;20135;-75
2023/06/20 10:14:56;;;;;;;1.38;1.25;;;;;;;22.98;37.45;101170.53;10284703;29;20040;-73
2023/06/20 10:20:06;;;;;;;2.17;1.15;;;;;;;22.96;37.65;101179.28;10265504;29;20622;-74
2023/06/20 10:25:13;;;;;;;2.10;1.67;;;;;;;22.86;38.25;101185.34;10284349;29;20453;-74
2023/06/20 10:30:15;;;;;;;1.88;1.48;;;;;;;22.97;37.86;101182.88;10285474;29;20043;-75
2023/06/20 10:35:18;;;;;;;2.10;1.40;;;;;;;22.78;38.93;101201.06;10285613;28;20074;-74
2023/06/20 10:40:29;;;;;;;2.25;1.48;;;;;;;22.66;38.41;101186.25;10279588;29;20051;-75
2023/06/20 10:45:31;;;;;;;3.70;1.33;;;;;;;22.66;39.12;101209.44;10277011;29;20547;-74
2023/06/20 10:50:34;;;;;;;1.50;1.40;;;;;;;22.53;38.90;101193.81;10276381;29;20050;-75
2023/06/20 10:55:38;;;;;;;5.13;1.98;;;;;;;22.49;40.40;101193.69;10277706;28;20032;-76
2023/06/20 11:00:40;;;;;;;2.17;1.60;;;;;;;22.27;41.28;101196.94;10277273;28;20067;-76
2023/06/20 11:05:48;;;;;;;2.20;1.50;;;;;;;22.26;41.68;101206.50;10281931;29;20054;-75
2023/06/20 11:10:50;;;;;;;4.80;1.70;;;;;;;22.07;41.99;101212.63;10280502;28;20858;-75
2023/06/20 11:15:52;;;;;;;2.53;1.60;;;;;;;21.95;42.61;101207.78;10278386;29;20059;-75
2023/06/20 11:20:56;;;;;;;1.30;1.10;;;;;;;21.91;42.16;101198.44;10274807;29;20050;-75
2023/06/20 11:25:58;;;;;;;2.70;1.50;;;;;;;21.87;42.11;101197.50;10265048;28;20043;-76
2023/06/20 11:31:09;;;;;;;2.90;1.45;;;;;;;21.93;41.31;101201.72;10273543;28;20047;-75
2023/06/20 11:36:15;;;;;;;3.95;1.90;;;;;;;21.88;41.74;101206.72;10274253;28;20047;-74
2023/06/20 11:41:18;;;;;;;1.80;1.53;;;;;;;21.56;41.67;101213.91;10278750;28;20039;-74
2023/06/20 11:46:20;;;;;;;2.67;1.98;;;;;;;21.34;42.92;101231.78;10281095;28;20051;-75
2023/06/20 11:51:24;;;;;;;3.58;1.92;;;;;;;21.17;43.33;101221.53;10279094;28;20062;-76
2023/06/20 11:56:26;;;;;;;2.30;1.95;;;;;;;20.94;43.52;101223.00;10277142;28;20046;-76
2023/06/20 12:01:30;;;;;;;1.70;1.55;;;;;;;20.86;43.93;101229.47;10279109;28;20038;-78
2023/06/20 12:06:34;;;;;;;4.40;1.70;;;;;;;20.96;43.90;101240.22;10275923;28;20403;-73
2023/06/20 12:11:46;;;;;;;2.95;1.83;;;;;;;20.98;43.71;101233.13;10274008;28;20043;-75
2023/06/20 12:16:49;;;;;;;3.72;2.08;;;;;;;21.07;44.23;101225.56;10277036;28;20058;-76
2023/06/20 12:21:51;;;;;;;3.10;1.50;;;;;;;21.17;43.42;101213.16;10279250;28;20046;-72
2023/06/20 12:26:53;;;;;;;2.78;1.65;;;;;;;21.14;43.52;101218.59;10275175;28;20403;-73
2023/06/20 12:31:56;;;;;;;2.67;1.10;;;;;;;21.33;42.73;101216.19;10279396;28;20043;-71
2023/06/20 12:36:59;;;;;;;3.88;1.60;;;;;;;21.44;42.76;101209.06;10279968;28;20493;-75
2023/06/20 12:42:01;;;;;;;3.05;1.58;;;;;;;21.31;42.63;101204.56;10291427;28;20047;-73
2023/06/20 12:47:03;;;;;;;3.60;2.15;;;;;;;21.13;43.47;101223.38;10262132;28;20039;-77
2023/06/20 12:52:09;;;;;;;3.08;1.80;;;;;;;20.80;44.21;101211.25;10277356;28;20028;-76
2023/06/20 12:57:11;;;;;;;2.28;1.15;;;;;;;20.51;45.10;101221.25;10256528;28;20054;-76
2023/06/20 13:02:13;;;;;;;2.30;1.92;;;;;;;20.31;45.71;101224.75;10273609;29;20040;-75
2023/06/20 13:07:16;;;;;;;2.85;1.92;;;;;;;20.25;45.87;101224.06;10272539;28;20055;-74
2023/06/20 13:12:19;;;;;;;3.50;1.88;;;;;;;20.48;45.81;101224.72;10273066;28;20039;-74
2023/06/20 13:17:22;;;;;;;2.88;1.77;;;;;;;20.57;44.92;101222.69;10259709;28;20502;-74
2023/06/20 13:22:24;;;;;;;3.10;1.80;;;;;;;20.53;44.87;101232.88;10284731;28;20039;-74
2023/06/20 13:27:27;;;;;;;3.90;1.92;;;;;;;20.52;44.49;101236.00;10284730;28;20055;-74
2023/06/20 13:32:29;;;;;;;1.70;1.60;;;;;;;20.29;45.31;101230.63;10284354;28;20506;-74
2023/06/20 13:37:32;;;;;;;4.10;1.35;;;;;;;20.29;45.29;101227.84;10282504;28;20088;-74
2023/06/20 13:42:48;;;;;;;2.22;1.80;;;;;;;20.14;45.08;101237.56;10287104;28;20059;-75
2023/06/20 13:47:50;;;;;;;5.05;1.52;;;;;;;20.11;45.44;101237.38;10270776;28;20062;-75
2023/06/20 13:52:52;;;;;;;4.35;2.40;;;;;;;20.19;45.48;101233.78;10278689;28;20040;-75
2023/06/20 13:57:54;;;;;;;3.78;2.60;;;;;;;20.06;45.29;101227.25;10283793;28;20052;-75
2023/06/20 14:02:57;;;;;;;5.03;2.10;;;;;;;19.77;45.72;101230.72;10269878;28;20047;-74
2023/06/20 14:07:59;;;;;;;2.53;1.80;;;;;;;19.69;46.18;101227.94;10286569;28;20125;-73
2023/06/20 14:13:01;;;;;;;5.55;1.63;;;;;;;19.88;45.86;101222.84;10267001;28;20054;-73
2023/06/20 14:18:03;;;;;;;4.18;2.10;;;;;;;20.20;45.40;101221.47;10284411;28;20050;-73
2023/06/20 14:23:05;;;;;;;2.42;1.50;;;;;;;20.35;44.89;101217.34;10283171;28;20046;-71
2023/06/20 14:28:08;;;;;;;2.78;2.00;;;;;;;20.27;44.66;101226.53;10281240;28;20047;-76
2023/06/20 14:33:11;;;;;;;2.45;1.65;;;;;;;20.20;44.79;101229.03;10283113;28;20043;-73
2023/06/20 14:38:14;;;;;;;2.83;1.88;;;;;;;20.28;44.98;101228.16;10286005;29;20047;-73
2023/06/20 14:43:16;;;;;;;1.70;1.20;;;;;;;20.42;44.71;101229.63;10283134;28;20446;-73
2023/06/20 14:48:18;;;;;;;3.08;2.15;;;;;;;20.40;44.58;101217.16;10283517;29;20059;-72
2023/06/20 14:53:21;;;;;;;4.20;1.80;;;;;;;20.31;44.27;101216.38;10285162;28;20656;-77
2023/06/20 14:58:23;;;;;;;2.28;1.33;;;;;;;20.40;44.68;101217.16;10274138;29;20052;-73
2023/06/20 15:03:26;;;;;;;2.08;1.50;;;;;;;20.43;44.10;101203.38;10282311;29;20067;-76
2023/06/20 15:08:29;;;;;;;1.65;1.42;;;;;;;20.40;44.82;101209.59;10265610;29;20544;-75
2023/06/20 15:13:31;;;;;;;3.40;1.83;;;;;;;20.21;44.72;101222.28;10280358;29;20074;-75
2023/06/20 15:18:37;;;;;;;2.72;1.50;;;;;;;20.26;44.39;101208.16;10274214;28;20051;-74
2023/06/20 15:23:39;;;;;;;2.10;1.55;;;;;;;20.37;44.81;101209.47;10273035;28;20039;-76
2023/06/20 15:28:44;;;;;;;2.28;1.33;;;;;;;20.47;44.18;101206.31;10276229;28;20525;-78
2023/06/20 15:33:48;;;;;;;2.15;1.45;;;;;;;20.43;44.26;101208.16;10274370;28;20043;-78
2023/06/20 15:38:50;;;;;;;3.97;1.80;;;;;;;20.32;44.55;101201.28;10274965;28;20043;-78
2023/06/20 15:43:52;;;;;;;1.65;1.27;;;;;;;20.22;44.90;101194.09;10258360;28;20055;-78
2023/06/20 15:48:59;;;;;;;2.35;1.38;;;;;;;20.35;44.31;101189.47;10279043;28;20059;-77
2023/06/20 15:54:01;;;;;;;2.33;1.67;;;;;;;20.28;44.55;101184.38;10257308;28;20051;-77
2023/06/20 15:59:03;;;;;;;2.03;1.63;;;;;;;20.12;44.77;101186.09;10277036;28;20043;-78
2023/06/20 16:04:05;;;;;;;3.05;1.83;;;;;;;20.08;44.89;101182.31;10280884;28;20090;-79
2023/06/20 16:09:08;;;;;;;1.52;1.42;;;;;;;19.97;44.83;101181.06;10295616;28;20052;-77
2023/06/20 16:14:10;;;;;;;2.75;1.60;;;;;;;20.07;45.07;101178.72;10294019;28;20588;-77
2023/06/20 16:19:12;;;;;;;2.80;1.83;;;;;;;20.05;44.96;101164.31;10259964;28;20411;-77
2023/06/20 16:24:14;;;;;;;2.38;1.58;;;;;;;;;;10259976;28;20043;-83
2023/06/20 16:29:17;;;;;;;3.22;1.33;;;;;;;19.98;45.09;101172.38;10268114;28;20051;-79
2023/06/20 16:34:19;;;;;;;2.05;1.50;;;;;;;20.03;45.16;101180.53;10280101;28;20055;-76
2023/06/20 16:39:21;;;;;;;1.80;1.08;;;;;;;20.02;45.02;101173.34;10278039;28;20043;-77
2023/06/20 16:44:23;;;;;;;1.38;1.20;;;;;;;19.84;45.34;101168.97;10243306;29;20055;-79
2023/06/20 16:49:26;;;;;;;3.85;2.20;;;;;;;19.88;44.86;101178.28;10280579;28;20059;-79
2023/06/20 16:54:28;;;;;;;2.08;1.50;;;;;;;19.75;45.21;101176.50;10281989;28;20039;-79
2023/06/20 16:59:33;;;;;;;3.45;1.90;;;;;;;19.62;45.68;101160.81;10271774;28;20126;-75
2023/06/20 17:04:35;;;;;;;1.52;1.40;;;;;;;19.65;45.73;101172.09;10287895;28;20131;-79
2023/06/20 17:09:38;;;;;;;4.43;1.98;;;;;;;19.57;45.55;101170.94;10253781;28;20039;-75
2023/06/20 17:14:41;;;;;;;2.22;1.50;;;;;;;19.48;45.50;101164.56;10287440;28;20051;-73
2023/06/20 17:19:43;;;;;;;3.28;1.42;;;;;;;19.50;45.52;101167.81;10285942;28;20050;-72
2023/06/20 17:24:45;;;;;;;2.63;1.45;;;;;;;19.47;44.94;101176.84;10285941;28;20410;-73
2023/06/20 17:29:48;;;;;;;2.30;1.75;;;;;;;19.38;44.28;101175.19;10273991;29;20064;-76
2023/06/20 17:34:51;;;;;;;1.45;1.20;;;;;;;19.24;44.79;101167.81;10286199;28;20407;-75
2023/06/20 17:39:54;;;;;;;1.80;1.50;;;;;;;19.15;44.62;101168.97;10262266;29;20043;-75
2023/06/20 17:44:56;;;;;;;1.77;1.40;;;;;;;19.05;42.81;101177.63;10285988;29;20062;-76
2023/06/20 17:49:59;;;;;;;2.55;1.20;;;;;;;18.80;43.72;101174.47;10282931;28;20058;-76
2023/06/20 17:55:01;;;;;;;3.15;1.73;;;;;;;18.56;44.60;101176.81;10261838;29;20054;-75
2023/06/20 18:00:05;;;;;;;2.28;1.55;;;;;;;18.31;45.36;101165.28;10267767;29;20047;-76
2023/06/20 18:05:08;;;;;;;3.28;1.45;;;;;;;18.29;45.69;101181.47;10277752;28;20537;-78
2023/06/20 18:10:10;;;;;;;2.47;1.23;;;;;;;18.43;45.44;101180.53;10277296;28;20058;-78
2023/06/20 18:15:12;;;;;;;2.05;1.33;;;;;;;18.43;46.06;101184.13;10257260;29;20060;-79
2023/06/20 18:20:15;;;;;;;1.98;1.10;;;;;;;18.41;45.70;101180.03;10280607;29;20055;-78
2023/06/20 18:25:17;;;;;;;3.65;1.15;;;;;;;18.44;45.10;101183.00;10271944;28;20042;-84
2023/06/20 18:30:19;;;;;;;3.08;1.73;;;;;;;18.21;44.82;101184.19;10278741;29;20098;-88
2023/06/20 18:35:21;;;;;;;2.63;1.42;;;;;;;17.96;44.97;101188.47;10281714;29;20047;-76
2023/06/20 18:40:23;;;;;;;1.63;1.10;;;;;;;17.96;44.52;101182.91;10263151;29;20055;-79
2023/06/20 18:45:26;;;;;;;1.30;1.20;;;;;;;18.04;43.99;101180.16;10283101;29;20151;-77
2023/06/20 18:50:28;;;;;;;3.75;1.25;;;;;;;18.17;43.36;101181.22;10277571;29;20054;-70
2023/06/20 18:55:30;;;;;;;1.98;1.38;;;;;;;18.02;42.93;101188.00;10273709;29;20051;-77
2023/06/20 19:00:32;;;;;;;7.45;1.98;;;;;;;17.74;42.73;101187.34;10282945;29;20414;-76
2023/06/20 19:05:35;;;;;;;1.80;1.48;;;;;;;17.63;43.06;101191.47;10278071;29;20051;-75
2023/06/20 19:10:38;;;;;;;2.38;1.40;;;;;;;17.50;43.14;101195.13;10276375;29;20055;-73
2023/06/20 19:15:40;;;;;;;2.03;1.25;;;;;;;17.34;42.50;101183.56;10268230;28;20080;-73
2023/06/20 19:20:42;;;;;;;3.92;1.17;;;;;;;17.42;43.29;101210.56;10277265;28;20127;-75
2023/06/20 19:25:44;;;;;;;4.55;1.10;;;;;;;17.56;43.39;101198.59;10295420;28;20047;-75
2023/06/20 19:30:46;;;;;;;2.75;1.27;;;;;;;17.48;43.32;101206.53;10281248;28;20062;-74
2023/06/20 19:35:50;;;;;;;2.20;1.50;;;;;;;17.33;43.71;101206.06;10275418;29;20039;-74
2023/06/20 19:40:52;;;;;;;2.53;1.30;;;;;;;17.41;43.96;101214.47;10262845;28;20059;-74
2023/06/20 19:45:54;;;;;;;6.07;1.60;;;;;;;17.65;45.09;101211.41;10280933;29;20058;-76
2023/06/20 19:50:56;;;;;;;1.30;1.10;;;;;;;17.46;45.97;101214.34;10268620;28;20063;-76
2023/06/20 19:55:58;;;;;;;3.33;1.73;;;;;;;17.19;47.23;101217.22;10274161;29;20050;-76
2023/06/20 20:01:01;;;;;;;4.20;1.38;;;;;;;17.05;47.41;101225.56;10271572;29;20046;-76
2023/06/20 20:06:03;;;;;;;2.80;1.48;;;;;;;16.92;47.72;101236.66;10276021;28;20538;-76
2023/06/20 20:11:06;;;;;;;3.47;1.52;;;;;;;16.78;48.22;101231.13;10266828;29;20047;-76
2023/06/20 20:16:08;;;;;;;1.48;1.00;;;;;;;16.55;47.59;101239.28;10267744;29;20058;-78
2023/06/20 20:21:10;;;;;;;4.30;1.00;;;;;;;16.44;47.79;101232.28;10274794;29;20043;-74
2023/06/20 20:26:13;;;;;;;2.28;1.20;;;;;;;16.47;47.19;101241.94;10267519;28;20040;-75
2023/06/20 20:31:17;;;;;;;1.00;0.90;;;;;;;16.52;46.87;101242.69;10261019;28;20077;-74
2023/06/20 20:36:20;;;;;;;1.60;1.00;;;;;;;16.57;47.12;101236.22;10264372;29;20062;-73
2023/06/20 20:41:22;;;;;;;1.25;1.05;;;;;;;16.51;47.41;101257.66;10277912;29;20675;-73
2023/06/20 20:49:45;;;;;;;2.35;1.30;;;;;;;16.90;46.85;101252.78;10551648;28;20641;-77
2023/06/20 20:54:47;;;;;;;1.20;0.90;;;;;;;16.98;46.17;101244.53;10532230;28;20037;-76
2023/06/20 20:59:49;;;;;;;1.60;1.13;;;;;;;16.99;46.43;101248.97;10540083;28;20540;-75
2023/06/20 21:04:52;;;;;;;1.90;0.90;;;;;;;16.68;46.71;101243.25;10534290;28;20040;-72
2023/06/20 21:09:54;;;;;;;1.90;1.05;;;;;;;16.63;46.65;101234.16;10558230;28;20084;-75
2023/06/20 21:14:56;;;;;;;3.08;1.40;;;;;;;16.52;47.67;101231.59;10525771;28;20041;-77
2023/06/20 21:19:58;;;;;;;1.33;1.10;;;;;;;16.47;47.12;101237.22;10534409;28;20414;-75
2023/06/20 21:25:01;;;;;;;3.22;1.35;;;;;;;16.59;47.19;101228.41;10529787;28;20041;-77
2023/06/20 21:30:04;;;;;;;2.90;1.70;;;;;;;16.77;47.23;101235.84;10545619;28;20044;-76
2023/06/20 21:35:09;;;;;;;1.85;1.20;;;;;;;16.66;47.23;101230.75;10520472;28;20037;-75
2023/06/20 21:40:11;;;;;;;2.47;1.40;;;;;;;16.98;47.16;101229.88;10538172;28;20147;-74
2023/06/20 21:45:13;;;;;;;2.53;1.35;;;;;;;16.79;47.50;101232.75;10519050;28;20529;-74
2023/06/20 21:50:23;;;;;;;2.85;1.73;;;;;;;16.74;48.06;101233.69;10504312;28;20036;-74
2023/06/20 21:55:25;;;;;;;2.53;1.50;;;;;;;16.65;48.22;101245.75;10518556;28;20055;-74
2023/06/20 22:00:27;;;;;;;2.10;1.50;;;;;;;16.54;48.41;101234.06;10510711;28;20452;-77
2023/06/20 22:05:29;;;;;;;1.80;1.23;;;;;;;16.22;48.57;101230.22;10524384;28;20150;-73
2023/06/20 22:10:35;;;;;;;2.03;1.23;;;;;;;16.49;48.31;101235.00;10489778;28;20064;-74
2023/06/20 22:15:37;;;;;;;1.77;1.13;;;;;;;16.61;47.79;101236.41;10510129;28;20055;-75
2023/06/20 22:20:39;;;;;;;1.90;1.10;;;;;;;16.49;48.54;101245.25;10522921;28;20032;-75
2023/06/20 22:25:42;;;;;;;2.35;1.10;;;;;;;16.35;48.02;101256.31;10511494;28;20056;-74
2023/06/20 22:30:44;;;;;;;2.28;1.10;;;;;;;16.41;48.34;101243.16;10506700;28;20055;-72
2023/06/20 22:35:46;;;;;;;4.32;1.27;;;;;;;16.15;48.25;101246.41;10509813;28;20040;-73
2023/06/20 22:40:51;;;;;;;2.00;1.30;;;;;;;15.88;49.17;101251.84;10499460;28;20422;-73
2023/06/20 22:45:53;;;;;;;2.75;1.88;;;;;;;15.60;49.44;101257.25;10516010;28;20075;-73
2023/06/20 22:50:55;;;;;;;3.95;1.30;;;;;;;15.54;49.85;101272.25;10502888;28;20037;-73
2023/06/20 22:55:57;;;;;;;3.03;1.77;;;;;;;15.64;50.63;101263.84;10500347;28;20044;-73
2023/06/20 23:01:00;;;;;;;5.60;1.67;;;;;;;15.71;49.81;101263.47;10494537;28;20045;-72
2023/06/20 23:06:02;;;;;;;2.70;1.20;;;;;;;15.88;50.27;101269.28;10489764;28;20037;-72
2023/06/20 23:11:04;;;;;;;1.75;1.05;;;;;;;15.94;50.63;101275.53;10492319;28;20045;-72
2023/06/20 23:16:06;;;;;;;1.70;1.20;;;;;;;16.15;50.40;101278.81;10489328;28;20072;-72